createdAt,value
2022-11-30T00:00:37.690Z,9.20
2022-11-30T00:03:04.900Z,9.20
2022-11-30T00:05:32.629Z,9.20
2022-11-30T00:08:01.341Z,9.20
2022-11-30T00:10:28.182Z,9.20
2022-11-30T00:12:55.018Z,9.20
2022-11-30T00:15:21.809Z,9.20
2022-11-30T00:17:48.924Z,9.20
2022-11-30T00:20:16.345Z,9.10
2022-11-30T00:22:43.121Z,9.10
2022-11-30T00:25:10.357Z,9.10
2022-11-30T00:27:37.264Z,9.10
2022-11-30T00:30:04.474Z,9.10
2022-11-30T00:32:31.265Z,9.10
2022-11-30T00:34:58.175Z,9.10
2022-11-30T00:37:25.068Z,9.10
2022-11-30T00:39:51.824Z,9.10
2022-11-30T00:42:18.596Z,9.10
2022-11-30T00:44:45.842Z,9.00
2022-11-30T00:47:12.805Z,9.00
2022-11-30T00:49:39.579Z,9.00
2022-11-30T00:52:06.648Z,8.90
2022-11-30T00:54:33.466Z,8.80
2022-11-30T00:57:00.581Z,8.60
2022-11-30T00:59:27.406Z,8.60
2022-11-30T01:01:55.046Z,8.50
2022-11-30T01:04:22.286Z,8.40
2022-11-30T01:06:49.080Z,8.40
2022-11-30T01:09:16.140Z,8.40
2022-11-30T01:11:42.923Z,8.30
2022-11-30T01:14:10.174Z,8.30
2022-11-30T01:16:37.150Z,8.30
2022-11-30T01:19:04.216Z,8.30
2022-11-30T01:21:31.720Z,8.20
2022-11-30T01:23:58.489Z,8.30
2022-11-30T01:26:25.788Z,8.30
2022-11-30T01:28:54.096Z,8.20
2022-11-30T01:31:23.560Z,8.30
2022-11-30T01:33:53.073Z,8.20
2022-11-30T01:36:23.130Z,8.20
2022-11-30T01:38:52.887Z,8.20
2022-11-30T01:41:29.307Z,8.10
2022-11-30T01:43:58.613Z,8.10
2022-11-30T01:46:42.316Z,8.10
2022-11-30T01:49:09.119Z,8.00
2022-11-30T01:51:57.238Z,8.00
2022-11-30T01:54:30.075Z,8.00
2022-11-30T01:57:04.720Z,8.00
2022-11-30T01:59:31.721Z,8.10
2022-11-30T02:01:58.980Z,8.10
2022-11-30T02:04:32.413Z,8.10
2022-11-30T02:07:01.185Z,8.10
2022-11-30T02:09:29.451Z,8.00
2022-11-30T02:11:57.361Z,7.90
2022-11-30T02:14:39.658Z,7.90
2022-11-30T02:17:54.463Z,7.90
2022-11-30T02:20:42.801Z,7.80
2022-11-30T02:23:41.659Z,7.80
2022-11-30T02:26:13.028Z,7.70
2022-11-30T02:29:10.378Z,7.70
2022-11-30T02:32:03.261Z,7.60
2022-11-30T02:34:34.103Z,7.50
2022-11-30T02:37:02.044Z,7.50
2022-11-30T02:39:28.800Z,7.60
2022-11-30T02:41:55.825Z,7.60
2022-11-30T02:44:24.057Z,7.50
2022-11-30T02:47:04.727Z,7.40
2022-11-30T02:49:33.959Z,7.40
2022-11-30T02:52:02.457Z,7.40
2022-11-30T02:54:29.231Z,7.40
2022-11-30T02:56:57.245Z,7.40
2022-11-30T02:59:24.185Z,7.40
2022-11-30T03:01:51.430Z,7.30
2022-11-30T03:04:18.222Z,7.40
2022-11-30T03:06:44.853Z,7.30
2022-11-30T03:09:11.715Z,7.40
2022-11-30T03:11:38.837Z,7.40
2022-11-30T03:14:05.746Z,7.50
2022-11-30T03:16:33.481Z,7.60
2022-11-30T03:19:00.701Z,7.60
2022-11-30T03:21:28.841Z,7.70
2022-11-30T03:23:55.554Z,7.70
2022-11-30T03:26:22.429Z,7.80
2022-11-30T03:28:49.310Z,7.80
2022-11-30T03:31:16.405Z,7.90
2022-11-30T03:33:43.623Z,7.80
2022-11-30T03:36:12.304Z,7.70
2022-11-30T03:38:39.242Z,7.70
2022-11-30T03:41:14.079Z,7.60
2022-11-30T03:43:41.184Z,7.50
2022-11-30T03:46:08.124Z,7.50
2022-11-30T03:48:36.069Z,7.50
2022-11-30T03:51:04.210Z,7.50
2022-11-30T03:53:31.952Z,7.50
2022-11-30T03:56:01.089Z,7.50
2022-11-30T03:58:28.483Z,7.50
2022-11-30T04:01:04.515Z,7.60
2022-11-30T04:03:31.482Z,7.60
2022-11-30T04:05:59.373Z,7.60
2022-11-30T04:08:27.387Z,7.60
2022-11-30T04:10:56.307Z,7.60
2022-11-30T04:13:24.169Z,7.60
2022-11-30T04:15:52.759Z,7.60
2022-11-30T04:18:21.702Z,7.60
2022-11-30T04:20:52.283Z,7.70
2022-11-30T04:23:20.615Z,7.70
2022-11-30T04:25:48.097Z,7.80
2022-11-30T04:28:16.660Z,7.80
2022-11-30T04:30:44.362Z,7.90
2022-11-30T04:33:12.074Z,7.90
2022-11-30T04:35:55.773Z,7.90
2022-11-30T04:38:24.010Z,7.90
2022-11-30T04:40:50.999Z,7.90
2022-11-30T04:43:18.130Z,7.90
2022-11-30T04:45:45.670Z,7.90
2022-11-30T04:48:14.887Z,7.90
2022-11-30T04:50:41.971Z,7.90
2022-11-30T04:53:09.001Z,8.00
2022-11-30T04:55:37.171Z,8.00
2022-11-30T04:58:05.495Z,8.00
2022-11-30T05:00:33.604Z,8.00
2022-11-30T05:03:00.562Z,8.00
2022-11-30T05:05:27.447Z,8.00
2022-11-30T05:07:59.212Z,8.00
2022-11-30T05:10:27.909Z,7.90
2022-11-30T05:12:57.682Z,7.90
2022-11-30T05:15:25.255Z,7.90
2022-11-30T05:17:52.204Z,8.00
2022-11-30T05:20:19.208Z,8.00
2022-11-30T05:22:46.049Z,8.00
2022-11-30T05:25:12.996Z,8.00
2022-11-30T05:27:39.918Z,8.00
2022-11-30T05:30:07.400Z,8.00
2022-11-30T05:32:34.761Z,7.90
2022-11-30T05:35:01.713Z,8.00
2022-11-30T05:37:28.744Z,8.00
2022-11-30T05:39:55.562Z,8.00
2022-11-30T05:42:22.563Z,8.00
2022-11-30T05:44:49.836Z,8.00
2022-11-30T05:47:17.175Z,8.00
2022-11-30T05:49:43.926Z,8.00
2022-11-30T05:52:11.141Z,7.90
2022-11-30T05:54:38.055Z,8.00
2022-11-30T05:57:05.414Z,8.00
2022-11-30T05:59:32.823Z,8.00
2022-11-30T06:01:59.801Z,7.90
2022-11-30T06:04:26.915Z,7.90
2022-11-30T06:06:55.874Z,7.90
2022-11-30T06:09:23.496Z,7.90
2022-11-30T06:11:50.643Z,7.90
2022-11-30T06:14:17.695Z,7.90
2022-11-30T06:16:44.948Z,7.90
2022-11-30T06:19:12.010Z,7.90
2022-11-30T06:21:39.321Z,7.80
2022-11-30T06:24:06.484Z,7.80
2022-11-30T06:26:33.323Z,7.90
2022-11-30T06:29:00.328Z,7.80
2022-11-30T06:31:27.276Z,7.90
2022-11-30T06:33:58.394Z,7.80
2022-11-30T06:36:25.358Z,7.80
2022-11-30T06:38:52.452Z,7.70
2022-11-30T06:41:19.428Z,7.70
2022-11-30T06:43:46.583Z,7.80
2022-11-30T06:46:13.613Z,7.70
2022-11-30T06:48:40.626Z,7.80
2022-11-30T06:51:09.620Z,7.70
2022-11-30T06:53:36.761Z,7.70
2022-11-30T06:56:10.490Z,7.70
2022-11-30T06:58:39.771Z,7.70
2022-11-30T07:01:08.796Z,7.70
2022-11-30T07:03:36.847Z,7.70
2022-11-30T07:06:08.104Z,7.60
2022-11-30T07:08:34.950Z,7.60
2022-11-30T07:11:02.187Z,7.60
2022-11-30T07:13:30.062Z,7.60
2022-11-30T07:15:57.068Z,7.70
2022-11-30T07:18:30.143Z,7.70
2022-11-30T07:21:00.863Z,7.80
2022-11-30T07:23:50.908Z,7.80
2022-11-30T07:26:23.108Z,7.80
2022-11-30T07:28:54.469Z,7.80
2022-11-30T07:31:27.132Z,7.80
2022-11-30T07:33:54.278Z,7.70
2022-11-30T07:36:23.178Z,7.70
2022-11-30T07:38:50.145Z,7.70
2022-11-30T07:41:17.371Z,7.80
2022-11-30T07:43:44.809Z,7.80
2022-11-30T07:46:14.411Z,7.80
2022-11-30T07:48:42.478Z,7.70
2022-11-30T07:51:15.505Z,7.70
2022-11-30T07:53:42.472Z,7.80
2022-11-30T07:56:14.717Z,7.70
2022-11-30T07:58:42.167Z,7.70
2022-11-30T08:01:10.582Z,7.70
2022-11-30T08:03:37.880Z,7.70
2022-11-30T08:06:07.932Z,7.60
2022-11-30T08:08:37.919Z,7.60
2022-11-30T08:11:06.760Z,7.70
2022-11-30T08:13:34.095Z,7.70
2022-11-30T08:16:06.178Z,7.80
2022-11-30T08:18:33.260Z,7.80
2022-11-30T08:21:01.947Z,7.80
2022-11-30T08:23:39.462Z,7.90
2022-11-30T08:26:10.201Z,7.90
2022-11-30T08:28:37.542Z,7.80
2022-11-30T08:31:07.686Z,7.80
2022-11-30T08:33:36.359Z,7.80
2022-11-30T08:36:23.186Z,7.80
2022-11-30T08:38:50.462Z,7.80
2022-11-30T08:41:19.488Z,7.80
2022-11-30T08:43:46.634Z,7.80
2022-11-30T08:46:49.209Z,7.70
2022-11-30T08:54:39.530Z,7.70
2022-11-30T08:57:06.471Z,7.60
2022-11-30T08:59:33.401Z,7.70
2022-11-30T09:02:00.653Z,7.70
2022-11-30T09:04:27.862Z,7.70
2022-11-30T09:06:58.931Z,7.70
2022-11-30T09:09:26.457Z,7.70
2022-11-30T09:11:53.798Z,7.70
2022-11-30T09:14:20.974Z,7.70
2022-11-30T09:16:47.923Z,7.70
2022-11-30T09:19:14.803Z,7.80
2022-11-30T09:21:44.236Z,7.80
2022-11-30T09:24:13.847Z,7.80
2022-11-30T09:26:40.797Z,7.80
2022-11-30T09:29:07.530Z,7.80
2022-11-30T09:31:34.626Z,7.80
2022-11-30T09:34:01.494Z,7.80
2022-11-30T09:36:29.042Z,7.80
2022-11-30T09:38:56.669Z,7.90
2022-11-30T09:41:58.553Z,7.90
2022-11-30T09:44:28.328Z,7.80
2022-11-30T09:47:08.108Z,7.80
2022-11-30T09:49:39.315Z,7.80
2022-11-30T09:52:14.363Z,7.70
2022-11-30T09:54:43.504Z,7.70
2022-11-30T09:57:25.855Z,7.70
2022-11-30T10:00:02.439Z,7.60
2022-11-30T10:02:39.914Z,7.60
2022-11-30T10:05:15.056Z,7.60
2022-11-30T10:07:53.755Z,7.70
2022-11-30T10:10:35.917Z,7.70
2022-11-30T10:13:30.699Z,7.60
2022-11-30T10:16:30.784Z,7.60
2022-11-30T10:19:13.540Z,7.70
2022-11-30T10:22:09.285Z,7.70
2022-11-30T10:25:15.855Z,7.60
2022-11-30T10:28:17.787Z,7.60
2022-11-30T10:30:49.002Z,7.50
2022-11-30T10:33:18.743Z,7.50
2022-11-30T10:35:59.445Z,7.50
2022-11-30T10:38:33.989Z,7.70
2022-11-30T10:41:26.498Z,7.70
2022-11-30T10:44:04.177Z,7.60
2022-11-30T10:46:38.360Z,7.60
2022-11-30T10:49:10.573Z,7.60
2022-11-30T10:51:39.529Z,7.60
2022-11-30T10:54:15.375Z,7.60
2022-11-30T10:56:42.217Z,7.50
2022-11-30T10:59:23.676Z,7.50
2022-11-30T11:01:52.728Z,7.50
2022-11-30T11:04:22.856Z,7.50
2022-11-30T11:07:09.980Z,7.50
2022-11-30T11:09:46.780Z,7.60
2022-11-30T11:12:21.135Z,7.60
2022-11-30T11:14:48.497Z,7.60
2022-11-30T11:17:18.537Z,7.60
2022-11-30T11:19:47.513Z,7.60
2022-11-30T11:22:17.242Z,7.60
2022-11-30T11:24:45.106Z,7.70
2022-11-30T11:27:28.782Z,7.70
2022-11-30T11:30:03.332Z,7.60
2022-11-30T11:32:31.644Z,7.70
2022-11-30T11:34:58.947Z,7.70
2022-11-30T11:37:30.902Z,7.80
2022-11-30T11:40:02.774Z,7.90
2022-11-30T11:42:34.175Z,7.80
2022-11-30T11:45:03.476Z,7.80
2022-11-30T11:47:40.961Z,7.80
2022-11-30T11:50:37.096Z,7.80
2022-11-30T11:53:22.705Z,7.80
2022-11-30T11:56:16.866Z,7.70
2022-11-30T11:58:46.393Z,7.80
2022-11-30T12:01:40.513Z,7.80
2022-11-30T12:04:29.268Z,7.80
2022-11-30T12:06:58.707Z,7.80
2022-11-30T12:09:35.775Z,7.80
2022-11-30T12:12:02.680Z,7.90
2022-11-30T12:14:32.412Z,7.80
2022-11-30T12:17:17.896Z,7.80
2022-11-30T12:20:06.921Z,7.80
2022-11-30T12:22:52.318Z,7.70
2022-11-30T12:25:33.462Z,7.70
2022-11-30T12:28:21.872Z,7.80
2022-11-30T12:31:17.914Z,7.80
2022-11-30T12:34:09.691Z,7.80
2022-11-30T12:36:44.944Z,7.80
2022-11-30T12:39:41.034Z,7.80
2022-11-30T12:42:14.946Z,7.80
2022-11-30T12:45:17.047Z,7.70
2022-11-30T12:48:20.990Z,7.70
2022-11-30T12:50:56.823Z,7.60
2022-11-30T12:53:38.841Z,7.50
2022-11-30T12:56:46.160Z,7.50
2022-11-30T12:59:22.206Z,7.50
2022-11-30T13:02:29.006Z,7.60
2022-11-30T13:05:02.462Z,7.70
2022-11-30T13:07:34.842Z,7.70
2022-11-30T13:10:29.093Z,7.70
2022-11-30T13:12:57.380Z,7.70
2022-11-30T13:15:28.381Z,7.70
2022-11-30T13:17:55.813Z,7.70
2022-11-30T13:20:40.523Z,7.70
2022-11-30T13:23:36.072Z,7.70
2022-11-30T13:26:20.901Z,7.70
2022-11-30T13:29:27.767Z,7.70
2022-11-30T13:32:05.557Z,7.70
2022-11-30T13:34:32.969Z,7.70
2022-11-30T13:37:03.798Z,7.70
2022-11-30T13:39:43.032Z,7.70
2022-11-30T13:42:18.704Z,7.70
2022-11-30T13:44:45.914Z,7.70
2022-11-30T13:47:29.969Z,7.70
2022-11-30T13:50:06.183Z,7.70
2022-11-30T13:52:58.069Z,7.70
2022-11-30T13:55:34.128Z,7.70
2022-11-30T13:58:00.940Z,7.60
2022-11-30T14:00:30.822Z,7.60
2022-11-30T14:03:20.039Z,7.60
2022-11-30T14:05:54.533Z,7.70
2022-11-30T14:08:21.266Z,7.60
2022-11-30T14:10:50.582Z,7.60
2022-11-30T14:13:22.497Z,7.50
2022-11-30T14:16:30.650Z,7.50
2022-11-30T14:19:01.214Z,7.50
2022-11-30T14:21:34.035Z,7.50
2022-11-30T14:24:18.215Z,7.50
2022-11-30T14:26:49.250Z,7.50
2022-11-30T14:29:27.866Z,7.50
2022-11-30T14:32:00.888Z,7.60
2022-11-30T14:34:37.249Z,7.60
2022-11-30T14:37:13.515Z,7.60
2022-11-30T14:39:46.336Z,7.50
2022-11-30T14:42:28.413Z,7.50
2022-11-30T14:44:56.568Z,7.50
2022-11-30T14:47:32.262Z,7.40
2022-11-30T14:50:02.713Z,7.40
2022-11-30T14:52:55.212Z,7.40
2022-11-30T14:55:45.578Z,7.50
2022-11-30T14:58:26.877Z,7.50
2022-11-30T15:00:54.020Z,7.50
2022-11-30T15:03:28.857Z,7.50
2022-11-30T15:06:00.898Z,7.50
2022-11-30T15:08:48.104Z,7.50
2022-11-30T15:11:16.070Z,7.50
2022-11-30T15:14:09.950Z,7.50
2022-11-30T15:16:37.071Z,7.40
2022-11-30T15:19:47.131Z,7.40
2022-11-30T15:22:23.001Z,7.40
2022-11-30T15:24:50.442Z,7.40
2022-11-30T15:27:22.928Z,7.40
2022-11-30T15:29:59.203Z,7.40
2022-11-30T15:32:26.815Z,7.40
2022-11-30T15:34:58.913Z,7.40
2022-11-30T15:37:39.654Z,7.40
2022-11-30T15:40:31.173Z,7.30
2022-11-30T15:42:58.857Z,7.40
2022-11-30T15:45:29.247Z,7.30
2022-11-30T15:47:57.869Z,7.40
2022-11-30T15:50:30.559Z,7.30
2022-11-30T15:53:00.026Z,7.30
2022-11-30T15:55:56.871Z,7.30
2022-11-30T15:58:28.645Z,7.30
2022-11-30T16:01:22.012Z,7.30
2022-11-30T16:03:55.003Z,7.30
2022-11-30T16:06:34.328Z,7.20
2022-11-30T16:09:19.036Z,7.20
2022-11-30T16:11:50.642Z,7.20
2022-11-30T16:14:17.712Z,7.20
2022-11-30T16:16:45.403Z,7.20
2022-11-30T16:19:12.377Z,7.20
2022-11-30T16:21:39.334Z,7.20
2022-11-30T16:24:06.337Z,7.10
2022-11-30T16:26:50.496Z,7.20
2022-11-30T16:29:18.604Z,7.20
2022-11-30T16:31:45.731Z,7.20
2022-11-30T16:34:12.676Z,7.20
2022-11-30T16:36:39.459Z,7.20
2022-11-30T16:39:06.563Z,7.20
2022-11-30T16:41:35.618Z,7.10
2022-11-30T16:44:02.538Z,7.10
2022-11-30T16:46:31.272Z,7.10
2022-11-30T16:48:58.400Z,7.20
2022-11-30T16:51:31.555Z,7.10
2022-11-30T16:53:58.624Z,7.10
2022-11-30T16:56:25.599Z,7.10
2022-11-30T16:58:53.022Z,7.10
2022-11-30T17:01:36.315Z,7.10
2022-11-30T17:04:26.441Z,7.10
2022-11-30T17:07:00.572Z,7.00
2022-11-30T17:09:30.211Z,7.00
2022-11-30T17:11:57.084Z,7.00
2022-11-30T17:14:24.133Z,7.00
2022-11-30T17:16:50.910Z,7.00
2022-11-30T17:19:17.784Z,7.00
2022-11-30T17:21:45.009Z,7.00
2022-11-30T17:24:11.892Z,7.10
2022-11-30T17:26:38.856Z,7.10
2022-11-30T17:29:06.301Z,7.10
2022-11-30T17:31:33.319Z,7.00
2022-11-30T17:34:00.991Z,7.00
2022-11-30T17:36:29.299Z,7.00
2022-11-30T17:38:56.622Z,7.00
2022-11-30T17:41:23.463Z,7.00
2022-11-30T17:43:50.306Z,7.10
2022-11-30T17:46:18.684Z,7.10
2022-11-30T17:48:46.158Z,7.10
2022-11-30T17:51:13.383Z,7.10
2022-11-30T17:53:41.692Z,7.10
2022-11-30T17:56:10.916Z,7.10
2022-11-30T17:58:43.288Z,7.10
2022-11-30T18:01:19.781Z,7.20
2022-11-30T18:03:47.537Z,7.20
2022-11-30T18:06:14.981Z,7.20
2022-11-30T18:08:42.075Z,7.30
2022-11-30T18:11:10.211Z,7.20
2022-11-30T18:13:37.567Z,7.30
2022-11-30T18:16:13.916Z,7.20
2022-11-30T18:18:47.102Z,7.20
2022-11-30T18:21:17.630Z,7.20
2022-11-30T18:23:44.594Z,7.20
2022-11-30T18:26:14.318Z,7.20
2022-11-30T18:28:41.632Z,7.20
2022-11-30T18:31:08.885Z,7.10
2022-11-30T18:33:36.545Z,7.10
2022-11-30T18:36:06.106Z,7.10
2022-11-30T18:38:37.538Z,7.10
2022-11-30T18:41:06.448Z,7.10
2022-11-30T18:43:34.104Z,7.10
2022-11-30T18:46:09.039Z,7.10
2022-11-30T18:48:37.256Z,7.10
2022-11-30T18:51:11.530Z,7.10
2022-11-30T18:53:38.494Z,7.10
2022-11-30T18:56:17.339Z,7.10
2022-11-30T18:58:45.157Z,7.10
2022-11-30T19:01:20.546Z,7.20
2022-11-30T19:03:56.172Z,7.10
2022-11-30T19:06:30.045Z,7.10
2022-11-30T19:08:57.374Z,7.10
2022-11-30T19:11:24.316Z,7.10
2022-11-30T19:13:55.574Z,7.20
2022-11-30T19:16:24.395Z,7.10
2022-11-30T19:18:52.132Z,7.10
2022-11-30T19:21:19.612Z,7.10
2022-11-30T19:23:46.724Z,7.20
2022-11-30T19:26:14.647Z,7.10
2022-11-30T19:28:43.929Z,7.00
2022-11-30T19:31:18.765Z,7.00
2022-11-30T19:33:50.767Z,7.00
2022-11-30T19:36:21.353Z,7.10
2022-11-30T19:38:48.655Z,7.10
2022-11-30T19:41:16.036Z,7.10
2022-11-30T19:43:46.550Z,7.20
2022-11-30T19:46:18.791Z,7.20
2022-11-30T19:48:45.767Z,7.20
2022-11-30T19:51:18.102Z,7.20
2022-11-30T19:53:46.030Z,7.20
2022-11-30T19:56:17.359Z,7.20
2022-11-30T19:58:59.800Z,7.20
2022-11-30T20:01:32.418Z,7.20
2022-11-30T20:03:59.249Z,7.20
2022-11-30T20:06:31.995Z,7.20
2022-11-30T20:08:58.805Z,7.20
2022-11-30T20:11:25.701Z,7.20
2022-11-30T20:13:52.708Z,7.20
2022-11-30T20:16:20.559Z,7.10
2022-11-30T20:19:00.744Z,7.20
2022-11-30T20:21:30.550Z,7.20
2022-11-30T20:23:59.380Z,7.20
2022-11-30T20:26:32.119Z,7.20
2022-11-30T20:29:01.019Z,7.20
2022-11-30T20:31:29.838Z,7.10
2022-11-30T20:33:56.845Z,7.20
2022-11-30T20:36:23.544Z,7.10
2022-11-30T20:38:50.683Z,7.10
2022-11-30T20:41:21.844Z,7.10
2022-11-30T20:43:49.396Z,7.10
2022-11-30T20:46:24.362Z,7.10
2022-11-30T20:48:52.099Z,7.10
2022-11-30T20:51:30.821Z,7.10
2022-11-30T20:54:07.157Z,7.10
2022-11-30T20:56:37.737Z,7.20
2022-11-30T20:59:15.861Z,7.20
2022-11-30T21:01:44.954Z,7.20
2022-11-30T21:04:11.930Z,7.20
2022-11-30T21:06:39.368Z,7.20
2022-11-30T21:09:06.230Z,7.20
2022-11-30T21:11:33.016Z,7.20
2022-11-30T21:13:59.941Z,7.20
2022-11-30T21:16:29.411Z,7.20
2022-11-30T21:19:00.674Z,7.20
2022-11-30T21:21:30.718Z,7.20
2022-11-30T21:24:00.224Z,7.20
2022-11-30T21:26:30.562Z,7.20
2022-11-30T21:29:06.804Z,7.20
2022-11-30T21:31:34.213Z,7.20
2022-11-30T21:34:01.705Z,7.20
2022-11-30T21:36:29.117Z,7.30
2022-11-30T21:39:05.461Z,7.20
2022-11-30T21:41:34.493Z,7.20
2022-11-30T21:44:01.856Z,7.20
2022-11-30T21:46:29.016Z,7.20
2022-11-30T21:48:55.939Z,7.20
2022-11-30T21:51:25.587Z,7.20
2022-11-30T21:53:57.602Z,7.10
2022-11-30T21:56:33.412Z,7.20
2022-11-30T21:59:01.275Z,7.20
2022-11-30T22:01:31.001Z,7.20
2022-11-30T22:03:59.399Z,7.20
2022-11-30T22:06:28.537Z,7.20
2022-11-30T22:09:03.600Z,7.20
2022-11-30T22:11:31.470Z,7.10
2022-11-30T22:13:58.503Z,7.10
2022-11-30T22:16:29.963Z,7.10
2022-11-30T22:19:01.131Z,7.10
2022-11-30T22:21:29.957Z,7.10
2022-11-30T22:23:59.369Z,7.20
2022-11-30T22:26:28.758Z,7.20
2022-11-30T22:28:58.187Z,7.10
2022-11-30T22:31:31.775Z,7.10
2022-11-30T22:33:58.998Z,7.10
2022-11-30T22:36:29.526Z,7.20
2022-11-30T22:38:58.894Z,7.20
2022-11-30T22:41:27.042Z,7.10
2022-11-30T22:43:55.178Z,7.10
2022-11-30T22:46:24.606Z,7.10
2022-11-30T22:48:52.932Z,7.10
2022-11-30T22:51:22.928Z,7.10
2022-11-30T22:53:51.488Z,7.10
2022-11-30T22:56:21.672Z,7.10
2022-11-30T22:58:50.162Z,7.00
2022-11-30T23:01:19.234Z,7.00
2022-11-30T23:03:47.684Z,7.00
2022-11-30T23:06:16.441Z,7.00
2022-11-30T23:08:44.177Z,7.00
2022-11-30T23:11:12.063Z,7.00
2022-11-30T23:13:40.018Z,7.00
2022-11-30T23:16:07.783Z,6.90
2022-11-30T23:18:40.467Z,6.90
2022-11-30T23:21:13.349Z,7.00
2022-11-30T23:23:41.361Z,7.00
2022-11-30T23:26:13.220Z,7.00
2022-11-30T23:28:41.634Z,7.00
2022-11-30T23:31:32.442Z,7.10
2022-11-30T23:34:02.517Z,7.10
2022-11-30T23:36:29.163Z,7.10
2022-11-30T23:38:58.983Z,7.10
2022-11-30T23:41:26.726Z,7.10
2022-11-30T23:43:54.235Z,7.00
2022-11-30T23:46:22.215Z,7.10
2022-11-30T23:48:49.110Z,7.10
2022-11-30T23:51:16.164Z,7.10
2022-11-30T23:53:42.924Z,7.10
2022-11-30T23:56:13.040Z,7.10
2022-11-30T23:58:40.065Z,7.10
